sensor_id;sensor_type;location;lat;lon;timestamp;P1;durP1;ratioP1;P2;durP2;ratioP2
37527;SDS011;23372;52.050;4.810;2024-01-15T00:00:39;15.10;;;1.53;;
37527;SDS011;23372;52.050;4.810;2024-01-15T00:03:05;14.17;;;3.00;;
37527;SDS011;23372;52.050;4.810;2024-01-15T00:05:30;11.43;;;2.00;;
37527;SDS011;23372;52.050;4.810;2024-01-15T00:07:56;11.43;;;1.60;;
37527;SDS011;23372;52.050;4.810;2024-01-15T00:10:21;5.63;;;1.27;;
37527;SDS011;23372;52.050;4.810;2024-01-15T00:12:47;11.93;;;1.77;;
37527;SDS011;23372;52.050;4.810;2024-01-15T00:15:13;13.13;;;1.63;;
37527;SDS011;23372;52.050;4.810;2024-01-15T00:17:38;20.67;;;2.00;;
37527;SDS011;23372;52.050;4.810;2024-01-15T00:20:04;10.40;;;1.97;;
37527;SDS011;23372;52.050;4.810;2024-01-15T00:22:30;15.00;;;2.00;;
37527;SDS011;23372;52.050;4.810;2024-01-15T00:24:56;9.20;;;1.63;;
37527;SDS011;23372;52.050;4.810;2024-01-15T00:27:22;10.33;;;1.53;;
37527;SDS011;23372;52.050;4.810;2024-01-15T00:29:48;16.60;;;2.00;;
37527;SDS011;23372;52.050;4.810;2024-01-15T00:32:15;12.67;;;1.67;;
37527;SDS011;23372;52.050;4.810;2024-01-15T00:34:41;8.03;;;1.30;;
37527;SDS011;23372;52.050;4.810;2024-01-15T00:37:06;11.20;;;1.50;;
37527;SDS011;23372;52.050;4.810;2024-01-15T00:39:32;14.13;;;2.03;;
37527;SDS011;23372;52.050;4.810;2024-01-15T00:41:58;21.63;;;1.90;;
37527;SDS011;23372;52.050;4.810;2024-01-15T00:44:23;8.20;;;1.50;;
37527;SDS011;23372;52.050;4.810;2024-01-15T00:46:49;8.60;;;1.80;;
37527;SDS011;23372;52.050;4.810;2024-01-15T00:49:14;10.57;;;1.47;;
37527;SDS011;23372;52.050;4.810;2024-01-15T00:51:41;12.80;;;1.70;;
37527;SDS011;23372;52.050;4.810;2024-01-15T00:54:07;7.67;;;1.30;;
37527;SDS011;23372;52.050;4.810;2024-01-15T00:56:32;7.50;;;1.10;;
37527;SDS011;23372;52.050;4.810;2024-01-15T00:58:58;8.20;;;0.90;;
37527;SDS011;23372;52.050;4.810;2024-01-15T01:01:25;9.63;;;1.40;;
37527;SDS011;23372;52.050;4.810;2024-01-15T01:03:51;7.50;;;1.10;;
37527;SDS011;23372;52.050;4.810;2024-01-15T01:06:16;6.53;;;1.20;;
37527;SDS011;23372;52.050;4.810;2024-01-15T01:08:42;8.40;;;1.30;;
37527;SDS011;23372;52.050;4.810;2024-01-15T01:11:07;7.60;;;0.80;;
37527;SDS011;23372;52.050;4.810;2024-01-15T01:13:37;9.90;;;1.40;;
37527;SDS011;23372;52.050;4.810;2024-01-15T01:16:02;9.37;;;1.23;;
37527;SDS011;23372;52.050;4.810;2024-01-15T01:18:28;11.73;;;1.20;;
37527;SDS011;23372;52.050;4.810;2024-01-15T01:20:54;6.80;;;1.03;;
37527;SDS011;23372;52.050;4.810;2024-01-15T01:23:19;6.73;;;0.97;;
37527;SDS011;23372;52.050;4.810;2024-01-15T01:25:45;10.17;;;1.43;;
37527;SDS011;23372;52.050;4.810;2024-01-15T01:28:10;8.87;;;1.20;;
37527;SDS011;23372;52.050;4.810;2024-01-15T01:30:36;7.97;;;1.03;;
37527;SDS011;23372;52.050;4.810;2024-01-15T01:33:01;8.57;;;1.17;;
37527;SDS011;23372;52.050;4.810;2024-01-15T01:35:27;19.47;;;1.20;;
37527;SDS011;23372;52.050;4.810;2024-01-15T01:37:52;12.50;;;1.50;;
37527;SDS011;23372;52.050;4.810;2024-01-15T01:40:18;8.93;;;1.27;;
37527;SDS011;23372;52.050;4.810;2024-01-15T01:42:43;9.67;;;1.33;;
37527;SDS011;23372;52.050;4.810;2024-01-15T01:45:09;13.40;;;1.83;;
37527;SDS011;23372;52.050;4.810;2024-01-15T01:47:35;6.40;;;1.23;;
37527;SDS011;23372;52.050;4.810;2024-01-15T01:50:01;9.37;;;2.20;;
37527;SDS011;23372;52.050;4.810;2024-01-15T01:52:27;14.30;;;1.57;;
37527;SDS011;23372;52.050;4.810;2024-01-15T01:54:53;6.03;;;2.10;;
37527;SDS011;23372;52.050;4.810;2024-01-15T01:57:19;13.47;;;1.60;;
37527;SDS011;23372;52.050;4.810;2024-01-15T01:59:45;5.13;;;1.10;;
37527;SDS011;23372;52.050;4.810;2024-01-15T02:02:11;6.33;;;1.10;;
37527;SDS011;23372;52.050;4.810;2024-01-15T02:04:37;9.87;;;0.87;;
37527;SDS011;23372;52.050;4.810;2024-01-15T02:07:03;8.67;;;1.40;;
37527;SDS011;23372;52.050;4.810;2024-01-15T02:09:29;5.87;;;0.97;;
37527;SDS011;23372;52.050;4.810;2024-01-15T02:11:54;6.73;;;1.17;;
37527;SDS011;23372;52.050;4.810;2024-01-15T02:14:20;11.87;;;1.40;;
37527;SDS011;23372;52.050;4.810;2024-01-15T02:16:46;4.03;;;0.80;;
37527;SDS011;23372;52.050;4.810;2024-01-15T02:19:16;8.30;;;1.10;;
37527;SDS011;23372;52.050;4.810;2024-01-15T02:21:42;9.63;;;1.30;;
37527;SDS011;23372;52.050;4.810;2024-01-15T02:24:08;7.53;;;1.30;;
37527;SDS011;23372;52.050;4.810;2024-01-15T02:26:33;6.07;;;0.60;;
37527;SDS011;23372;52.050;4.810;2024-01-15T02:29:00;9.87;;;1.13;;
37527;SDS011;23372;52.050;4.810;2024-01-15T02:31:27;12.50;;;1.10;;
37527;SDS011;23372;52.050;4.810;2024-01-15T02:33:52;4.97;;;1.30;;
37527;SDS011;23372;52.050;4.810;2024-01-15T02:36:18;6.60;;;0.90;;
37527;SDS011;23372;52.050;4.810;2024-01-15T02:38:43;5.80;;;1.10;;
37527;SDS011;23372;52.050;4.810;2024-01-15T02:41:09;4.90;;;1.00;;
37527;SDS011;23372;52.050;4.810;2024-01-15T02:43:34;5.87;;;0.97;;
37527;SDS011;23372;52.050;4.810;2024-01-15T02:46:00;6.40;;;0.80;;
37527;SDS011;23372;52.050;4.810;2024-01-15T02:48:25;3.73;;;0.70;;
37527;SDS011;23372;52.050;4.810;2024-01-15T02:50:51;5.67;;;0.87;;
37527;SDS011;23372;52.050;4.810;2024-01-15T02:53:16;5.30;;;1.60;;
37527;SDS011;23372;52.050;4.810;2024-01-15T02:55:42;5.80;;;0.60;;
37527;SDS011;23372;52.050;4.810;2024-01-15T02:58:07;5.50;;;0.80;;
37527;SDS011;23372;52.050;4.810;2024-01-15T03:00:33;5.47;;;0.67;;
37527;SDS011;23372;52.050;4.810;2024-01-15T03:02:59;6.40;;;0.80;;
37527;SDS011;23372;52.050;4.810;2024-01-15T03:05:24;4.43;;;0.77;;
37527;SDS011;23372;52.050;4.810;2024-01-15T03:07:50;2.87;;;0.50;;
37527;SDS011;23372;52.050;4.810;2024-01-15T03:10:15;2.67;;;0.67;;
37527;SDS011;23372;52.050;4.810;2024-01-15T03:12:41;7.27;;;0.70;;
37527;SDS011;23372;52.050;4.810;2024-01-15T03:15:06;7.87;;;1.33;;
37527;SDS011;23372;52.050;4.810;2024-01-15T03:17:32;2.73;;;0.60;;
37527;SDS011;23372;52.050;4.810;2024-01-15T03:19:58;4.10;;;0.80;;
37527;SDS011;23372;52.050;4.810;2024-01-15T03:22:23;6.60;;;0.70;;
37527;SDS011;23372;52.050;4.810;2024-01-15T03:24:49;4.63;;;1.57;;
37527;SDS011;23372;52.050;4.810;2024-01-15T03:27:14;6.13;;;1.03;;
37527;SDS011;23372;52.050;4.810;2024-01-15T03:29:40;6.30;;;0.70;;
37527;SDS011;23372;52.050;4.810;2024-01-15T03:32:06;8.07;;;1.00;;
37527;SDS011;23372;52.050;4.810;2024-01-15T03:34:32;8.83;;;0.80;;
37527;SDS011;23372;52.050;4.810;2024-01-15T03:36:57;6.87;;;0.93;;
37527;SDS011;23372;52.050;4.810;2024-01-15T03:39:24;6.87;;;1.00;;
37527;SDS011;23372;52.050;4.810;2024-01-15T03:41:49;9.93;;;2.03;;
37527;SDS011;23372;52.050;4.810;2024-01-15T03:44:15;12.93;;;1.03;;
37527;SDS011;23372;52.050;4.810;2024-01-15T03:46:40;7.00;;;1.10;;
37527;SDS011;23372;52.050;4.810;2024-01-15T03:49:06;8.40;;;0.87;;
37527;SDS011;23372;52.050;4.810;2024-01-15T03:51:32;11.33;;;1.10;;
37527;SDS011;23372;52.050;4.810;2024-01-15T03:53:57;10.57;;;1.17;;
37527;SDS011;23372;52.050;4.810;2024-01-15T03:56:23;10.47;;;0.97;;
37527;SDS011;23372;52.050;4.810;2024-01-15T03:58:48;5.53;;;0.97;;
37527;SDS011;23372;52.050;4.810;2024-01-15T04:01:14;9.57;;;1.10;;
37527;SDS011;23372;52.050;4.810;2024-01-15T04:03:39;5.37;;;0.60;;
37527;SDS011;23372;52.050;4.810;2024-01-15T04:06:05;4.67;;;0.40;;
37527;SDS011;23372;52.050;4.810;2024-01-15T04:08:30;4.50;;;0.90;;
37527;SDS011;23372;52.050;4.810;2024-01-15T04:10:56;8.87;;;0.80;;
37527;SDS011;23372;52.050;4.810;2024-01-15T04:13:22;5.33;;;0.73;;
37527;SDS011;23372;52.050;4.810;2024-01-15T04:15:47;5.67;;;0.87;;
37527;SDS011;23372;52.050;4.810;2024-01-15T04:18:13;3.57;;;0.40;;
37527;SDS011;23372;52.050;4.810;2024-01-15T04:20:40;3.03;;;0.40;;
37527;SDS011;23372;52.050;4.810;2024-01-15T04:23:06;2.40;;;0.30;;
37527;SDS011;23372;52.050;4.810;2024-01-15T04:25:31;3.03;;;0.57;;
37527;SDS011;23372;52.050;4.810;2024-01-15T04:27:57;3.30;;;0.40;;
37527;SDS011;23372;52.050;4.810;2024-01-15T04:30:23;3.40;;;0.73;;
37527;SDS011;23372;52.050;4.810;2024-01-15T04:32:49;6.07;;;0.40;;
37527;SDS011;23372;52.050;4.810;2024-01-15T04:35:14;8.10;;;0.50;;
37527;SDS011;23372;52.050;4.810;2024-01-15T04:37:40;5.03;;;0.70;;
37527;SDS011;23372;52.050;4.810;2024-01-15T04:40:06;1.50;;;0.57;;
37527;SDS011;23372;52.050;4.810;2024-01-15T04:42:32;2.43;;;0.53;;
37527;SDS011;23372;52.050;4.810;2024-01-15T04:44:57;4.67;;;0.73;;
37527;SDS011;23372;52.050;4.810;2024-01-15T04:47:24;2.10;;;0.47;;
37527;SDS011;23372;52.050;4.810;2024-01-15T04:49:49;2.93;;;0.50;;
37527;SDS011;23372;52.050;4.810;2024-01-15T04:52:16;7.90;;;0.57;;
37527;SDS011;23372;52.050;4.810;2024-01-15T04:54:41;4.93;;;0.40;;
37527;SDS011;23372;52.050;4.810;2024-01-15T04:57:07;6.97;;;1.03;;
37527;SDS011;23372;52.050;4.810;2024-01-15T04:59:32;3.83;;;0.83;;
37527;SDS011;23372;52.050;4.810;2024-01-15T05:01:58;2.70;;;0.63;;
37527;SDS011;23372;52.050;4.810;2024-01-15T05:04:23;5.77;;;0.67;;
37527;SDS011;23372;52.050;4.810;2024-01-15T05:06:52;8.43;;;0.57;;
37527;SDS011;23372;52.050;4.810;2024-01-15T05:09:18;6.23;;;0.70;;
37527;SDS011;23372;52.050;4.810;2024-01-15T05:11:44;4.43;;;0.70;;
37527;SDS011;23372;52.050;4.810;2024-01-15T05:14:09;8.53;;;0.63;;
37527;SDS011;23372;52.050;4.810;2024-01-15T05:16:37;2.50;;;0.30;;
37527;SDS011;23372;52.050;4.810;2024-01-15T05:19:03;3.27;;;0.53;;
37527;SDS011;23372;52.050;4.810;2024-01-15T05:21:29;3.60;;;0.87;;
37527;SDS011;23372;52.050;4.810;2024-01-15T05:23:54;4.70;;;1.10;;
37527;SDS011;23372;52.050;4.810;2024-01-15T05:26:20;5.80;;;1.13;;
37527;SDS011;23372;52.050;4.810;2024-01-15T05:28:45;5.90;;;0.80;;
37527;SDS011;23372;52.050;4.810;2024-01-15T05:31:11;4.10;;;0.60;;
37527;SDS011;23372;52.050;4.810;2024-01-15T05:33:36;8.63;;;0.90;;
37527;SDS011;23372;52.050;4.810;2024-01-15T05:36:02;14.10;;;0.90;;
37527;SDS011;23372;52.050;4.810;2024-01-15T05:38:28;5.60;;;0.80;;
37527;SDS011;23372;52.050;4.810;2024-01-15T05:40:53;9.50;;;1.00;;
37527;SDS011;23372;52.050;4.810;2024-01-15T05:43:19;5.50;;;1.10;;
37527;SDS011;23372;52.050;4.810;2024-01-15T05:45:44;1.73;;;0.73;;
37527;SDS011;23372;52.050;4.810;2024-01-15T05:48:10;3.80;;;0.73;;
37527;SDS011;23372;52.050;4.810;2024-01-15T05:50:37;4.87;;;0.73;;
37527;SDS011;23372;52.050;4.810;2024-01-15T05:53:03;5.30;;;0.70;;
37527;SDS011;23372;52.050;4.810;2024-01-15T05:55:28;9.13;;;1.03;;
37527;SDS011;23372;52.050;4.810;2024-01-15T05:57:54;4.93;;;0.60;;
37527;SDS011;23372;52.050;4.810;2024-01-15T06:00:19;6.43;;;0.67;;
37527;SDS011;23372;52.050;4.810;2024-01-15T06:02:45;7.07;;;0.70;;
37527;SDS011;23372;52.050;4.810;2024-01-15T06:05:11;4.20;;;0.47;;
37527;SDS011;23372;52.050;4.810;2024-01-15T06:07:36;4.07;;;0.80;;
37527;SDS011;23372;52.050;4.810;2024-01-15T06:10:02;3.43;;;0.77;;
37527;SDS011;23372;52.050;4.810;2024-01-15T06:12:29;4.40;;;0.83;;
37527;SDS011;23372;52.050;4.810;2024-01-15T06:14:55;2.80;;;0.57;;
37527;SDS011;23372;52.050;4.810;2024-01-15T06:17:20;5.30;;;0.80;;
37527;SDS011;23372;52.050;4.810;2024-01-15T06:19:46;4.67;;;0.70;;
37527;SDS011;23372;52.050;4.810;2024-01-15T06:22:12;5.60;;;0.80;;
37527;SDS011;23372;52.050;4.810;2024-01-15T06:24:37;2.77;;;0.67;;
37527;SDS011;23372;52.050;4.810;2024-01-15T06:27:03;6.43;;;1.00;;
37527;SDS011;23372;52.050;4.810;2024-01-15T06:29:28;8.00;;;1.10;;
37527;SDS011;23372;52.050;4.810;2024-01-15T06:31:55;9.43;;;1.70;;
37527;SDS011;23372;52.050;4.810;2024-01-15T06:34:20;8.53;;;1.17;;
37527;SDS011;23372;52.050;4.810;2024-01-15T06:36:46;6.17;;;0.83;;
37527;SDS011;23372;52.050;4.810;2024-01-15T06:39:11;3.53;;;1.03;;
37527;SDS011;23372;52.050;4.810;2024-01-15T06:41:37;6.33;;;1.20;;
37527;SDS011;23372;52.050;4.810;2024-01-15T06:44:09;5.30;;;1.10;;
37527;SDS011;23372;52.050;4.810;2024-01-15T06:46:35;4.77;;;1.20;;
37527;SDS011;23372;52.050;4.810;2024-01-15T06:49:01;6.87;;;0.87;;
37527;SDS011;23372;52.050;4.810;2024-01-15T06:51:27;8.73;;;1.37;;
37527;SDS011;23372;52.050;4.810;2024-01-15T06:53:54;5.73;;;0.83;;
37527;SDS011;23372;52.050;4.810;2024-01-15T06:56:19;8.80;;;1.00;;
37527;SDS011;23372;52.050;4.810;2024-01-15T06:58:45;1.57;;;0.67;;
37527;SDS011;23372;52.050;4.810;2024-01-15T07:01:10;7.27;;;0.70;;
37527;SDS011;23372;52.050;4.810;2024-01-15T07:03:36;11.33;;;1.27;;
37527;SDS011;23372;52.050;4.810;2024-01-15T07:06:02;4.90;;;0.60;;
37527;SDS011;23372;52.050;4.810;2024-01-15T07:08:28;2.77;;;0.60;;
37527;SDS011;23372;52.050;4.810;2024-01-15T07:10:53;3.60;;;0.50;;
37527;SDS011;23372;52.050;4.810;2024-01-15T07:13:19;3.37;;;0.53;;
37527;SDS011;23372;52.050;4.810;2024-01-15T07:15:44;1.20;;;0.30;;
37527;SDS011;23372;52.050;4.810;2024-01-15T07:18:10;10.23;;;0.90;;
37527;SDS011;23372;52.050;4.810;2024-01-15T07:20:35;6.93;;;0.60;;
37527;SDS011;23372;52.050;4.810;2024-01-15T07:23:01;3.50;;;0.53;;
37527;SDS011;23372;52.050;4.810;2024-01-15T07:25:27;5.67;;;0.43;;
37527;SDS011;23372;52.050;4.810;2024-01-15T07:27:52;3.73;;;0.70;;
37527;SDS011;23372;52.050;4.810;2024-01-15T07:30:19;5.93;;;0.97;;
37527;SDS011;23372;52.050;4.810;2024-01-15T07:32:46;3.60;;;0.60;;
37527;SDS011;23372;52.050;4.810;2024-01-15T07:35:13;4.57;;;0.50;;
37527;SDS011;23372;52.050;4.810;2024-01-15T07:37:39;4.70;;;0.60;;
37527;SDS011;23372;52.050;4.810;2024-01-15T07:40:05;7.17;;;0.80;;
37527;SDS011;23372;52.050;4.810;2024-01-15T07:42:33;3.63;;;0.63;;
37527;SDS011;23372;52.050;4.810;2024-01-15T07:44:59;3.33;;;0.70;;
37527;SDS011;23372;52.050;4.810;2024-01-15T07:47:25;5.20;;;1.27;;
37527;SDS011;23372;52.050;4.810;2024-01-15T07:49:52;6.67;;;0.70;;
37527;SDS011;23372;52.050;4.810;2024-01-15T07:52:18;8.27;;;1.20;;
37527;SDS011;23372;52.050;4.810;2024-01-15T07:54:44;5.37;;;0.60;;
37527;SDS011;23372;52.050;4.810;2024-01-15T07:57:10;3.93;;;0.90;;
37527;SDS011;23372;52.050;4.810;2024-01-15T07:59:35;6.07;;;0.63;;
37527;SDS011;23372;52.050;4.810;2024-01-15T08:02:01;4.73;;;1.47;;
37527;SDS011;23372;52.050;4.810;2024-01-15T08:04:27;3.53;;;1.03;;
37527;SDS011;23372;52.050;4.810;2024-01-15T08:06:52;4.93;;;0.83;;
37527;SDS011;23372;52.050;4.810;2024-01-15T08:09:18;7.80;;;1.30;;
37527;SDS011;23372;52.050;4.810;2024-01-15T08:11:43;5.73;;;1.60;;
37527;SDS011;23372;52.050;4.810;2024-01-15T08:14:09;8.03;;;1.20;;
37527;SDS011;23372;52.050;4.810;2024-01-15T08:16:36;3.07;;;1.03;;
37527;SDS011;23372;52.050;4.810;2024-01-15T08:19:02;8.87;;;2.10;;
37527;SDS011;23372;52.050;4.810;2024-01-15T08:21:28;4.80;;;1.20;;
37527;SDS011;23372;52.050;4.810;2024-01-15T08:24:00;5.03;;;1.03;;
37527;SDS011;23372;52.050;4.810;2024-01-15T08:26:27;2.97;;;1.30;;
37527;SDS011;23372;52.050;4.810;2024-01-15T08:28:53;5.77;;;1.00;;
37527;SDS011;23372;52.050;4.810;2024-01-15T08:31:18;7.17;;;0.93;;
37527;SDS011;23372;52.050;4.810;2024-01-15T08:33:44;8.87;;;1.13;;
37527;SDS011;23372;52.050;4.810;2024-01-15T08:36:10;4.27;;;1.07;;
37527;SDS011;23372;52.050;4.810;2024-01-15T08:38:35;8.37;;;1.20;;
37527;SDS011;23372;52.050;4.810;2024-01-15T08:41:01;5.67;;;0.80;;
37527;SDS011;23372;52.050;4.810;2024-01-15T08:43:26;5.23;;;1.30;;
37527;SDS011;23372;52.050;4.810;2024-01-15T08:45:52;5.00;;;1.30;;
37527;SDS011;23372;52.050;4.810;2024-01-15T08:48:18;6.97;;;1.80;;
37527;SDS011;23372;52.050;4.810;2024-01-15T08:50:44;8.07;;;1.53;;
37527;SDS011;23372;52.050;4.810;2024-01-15T08:53:13;9.37;;;2.90;;
37527;SDS011;23372;52.050;4.810;2024-01-15T08:55:39;4.80;;;2.10;;
37527;SDS011;23372;52.050;4.810;2024-01-15T08:58:07;8.93;;;2.30;;
37527;SDS011;23372;52.050;4.810;2024-01-15T09:00:33;6.43;;;2.03;;
37527;SDS011;23372;52.050;4.810;2024-01-15T09:02:58;10.10;;;1.87;;
37527;SDS011;23372;52.050;4.810;2024-01-15T09:05:24;10.77;;;1.70;;
37527;SDS011;23372;52.050;4.810;2024-01-15T09:07:50;7.30;;;0.90;;
37527;SDS011;23372;52.050;4.810;2024-01-15T09:10:17;5.77;;;0.80;;
37527;SDS011;23372;52.050;4.810;2024-01-15T09:12:43;3.60;;;0.77;;
37527;SDS011;23372;52.050;4.810;2024-01-15T09:15:08;9.23;;;1.10;;
37527;SDS011;23372;52.050;4.810;2024-01-15T09:17:34;5.90;;;0.70;;
37527;SDS011;23372;52.050;4.810;2024-01-15T09:19:59;5.47;;;0.80;;
37527;SDS011;23372;52.050;4.810;2024-01-15T09:22:25;5.77;;;1.27;;
37527;SDS011;23372;52.050;4.810;2024-01-15T09:24:51;5.83;;;0.93;;
37527;SDS011;23372;52.050;4.810;2024-01-15T09:27:17;6.87;;;0.97;;
37527;SDS011;23372;52.050;4.810;2024-01-15T09:29:42;6.80;;;0.80;;
37527;SDS011;23372;52.050;4.810;2024-01-15T09:32:10;9.47;;;1.27;;
37527;SDS011;23372;52.050;4.810;2024-01-15T09:34:36;7.60;;;1.33;;
37527;SDS011;23372;52.050;4.810;2024-01-15T09:37:01;7.73;;;0.97;;
37527;SDS011;23372;52.050;4.810;2024-01-15T09:39:29;12.17;;;1.43;;
37527;SDS011;23372;52.050;4.810;2024-01-15T09:41:55;3.33;;;0.70;;
37527;SDS011;23372;52.050;4.810;2024-01-15T09:44:22;8.17;;;1.20;;
37527;SDS011;23372;52.050;4.810;2024-01-15T09:46:48;5.90;;;1.07;;
37527;SDS011;23372;52.050;4.810;2024-01-15T09:49:17;5.03;;;1.00;;
37527;SDS011;23372;52.050;4.810;2024-01-15T09:51:43;3.80;;;0.70;;
37527;SDS011;23372;52.050;4.810;2024-01-15T09:54:09;3.53;;;0.57;;
37527;SDS011;23372;52.050;4.810;2024-01-15T09:56:38;6.60;;;1.27;;
37527;SDS011;23372;52.050;4.810;2024-01-15T09:59:04;9.47;;;1.20;;
37527;SDS011;23372;52.050;4.810;2024-01-15T10:01:31;6.77;;;1.47;;
37527;SDS011;23372;52.050;4.810;2024-01-15T10:03:57;11.23;;;1.40;;
37527;SDS011;23372;52.050;4.810;2024-01-15T10:06:24;10.50;;;1.40;;
37527;SDS011;23372;52.050;4.810;2024-01-15T10:08:52;7.33;;;0.90;;
37527;SDS011;23372;52.050;4.810;2024-01-15T10:11:19;4.30;;;0.80;;
37527;SDS011;23372;52.050;4.810;2024-01-15T10:13:44;9.80;;;1.10;;
37527;SDS011;23372;52.050;4.810;2024-01-15T10:16:10;8.80;;;1.40;;
37527;SDS011;23372;52.050;4.810;2024-01-15T10:18:36;8.43;;;0.80;;
37527;SDS011;23372;52.050;4.810;2024-01-15T10:21:07;10.33;;;1.23;;
37527;SDS011;23372;52.050;4.810;2024-01-15T10:23:33;7.30;;;0.80;;
37527;SDS011;23372;52.050;4.810;2024-01-15T10:25:59;9.20;;;1.37;;
37527;SDS011;23372;52.050;4.810;2024-01-15T10:28:26;9.77;;;1.37;;
37527;SDS011;23372;52.050;4.810;2024-01-15T10:30:53;4.53;;;1.07;;
37527;SDS011;23372;52.050;4.810;2024-01-15T10:33:23;4.40;;;0.83;;
37527;SDS011;23372;52.050;4.810;2024-01-15T10:35:51;6.27;;;0.97;;
37527;SDS011;23372;52.050;4.810;2024-01-15T10:38:22;11.03;;;1.30;;
37527;SDS011;23372;52.050;4.810;2024-01-15T10:40:54;4.93;;;1.27;;
37527;SDS011;23372;52.050;4.810;2024-01-15T10:43:21;4.70;;;0.90;;
37527;SDS011;23372;52.050;4.810;2024-01-15T10:45:47;3.67;;;0.50;;
37527;SDS011;23372;52.050;4.810;2024-01-15T10:48:16;4.10;;;0.70;;
37527;SDS011;23372;52.050;4.810;2024-01-15T10:50:43;4.00;;;0.63;;
37527;SDS011;23372;52.050;4.810;2024-01-15T10:53:09;3.23;;;0.53;;
37527;SDS011;23372;52.050;4.810;2024-01-15T10:55:37;4.37;;;0.60;;
37527;SDS011;23372;52.050;4.810;2024-01-15T10:58:06;2.63;;;0.30;;
37527;SDS011;23372;52.050;4.810;2024-01-15T11:00:33;5.53;;;0.80;;
37527;SDS011;23372;52.050;4.810;2024-01-15T11:03:03;3.33;;;0.80;;
37527;SDS011;23372;52.050;4.810;2024-01-15T11:05:39;2.53;;;0.67;;
37527;SDS011;23372;52.050;4.810;2024-01-15T11:08:07;6.17;;;0.80;;
37527;SDS011;23372;52.050;4.810;2024-01-15T11:10:40;2.80;;;0.43;;
37527;SDS011;23372;52.050;4.810;2024-01-15T11:13:13;3.60;;;0.70;;
37527;SDS011;23372;52.050;4.810;2024-01-15T11:18:34;3.40;;;0.83;;
37527;SDS011;23372;52.050;4.810;2024-01-15T11:23:52;5.13;;;1.50;;
37527;SDS011;23372;52.050;4.810;2024-01-15T11:28:52;17.93;;;1.83;;
37527;SDS011;23372;52.050;4.810;2024-01-15T11:31:19;6.33;;;1.00;;
37527;SDS011;23372;52.050;4.810;2024-01-15T11:33:49;2.60;;;0.87;;
37527;SDS011;23372;52.050;4.810;2024-01-15T11:36:15;8.83;;;0.70;;
37527;SDS011;23372;52.050;4.810;2024-01-15T11:38:40;5.80;;;1.03;;
37527;SDS011;23372;52.050;4.810;2024-01-15T11:41:15;11.23;;;1.70;;
37527;SDS011;23372;52.050;4.810;2024-01-15T11:43:41;4.03;;;0.73;;
37527;SDS011;23372;52.050;4.810;2024-01-15T11:46:10;6.43;;;1.00;;
37527;SDS011;23372;52.050;4.810;2024-01-15T11:48:43;7.00;;;0.80;;
37527;SDS011;23372;52.050;4.810;2024-01-15T11:51:12;5.17;;;1.20;;
37527;SDS011;23372;52.050;4.810;2024-01-15T11:53:45;6.47;;;1.20;;
37527;SDS011;23372;52.050;4.810;2024-01-15T11:56:17;4.73;;;0.97;;
37527;SDS011;23372;52.050;4.810;2024-01-15T11:58:46;8.60;;;1.20;;
37527;SDS011;23372;52.050;4.810;2024-01-15T12:01:12;5.27;;;1.00;;
37527;SDS011;23372;52.050;4.810;2024-01-15T12:03:37;5.17;;;0.93;;
37527;SDS011;23372;52.050;4.810;2024-01-15T12:06:06;4.43;;;1.00;;
37527;SDS011;23372;52.050;4.810;2024-01-15T12:08:32;10.40;;;1.10;;
37527;SDS011;23372;52.050;4.810;2024-01-15T12:10:57;4.83;;;0.83;;
37527;SDS011;23372;52.050;4.810;2024-01-15T12:13:23;12.87;;;1.47;;
37527;SDS011;23372;52.050;4.810;2024-01-15T12:15:49;5.07;;;1.00;;
37527;SDS011;23372;52.050;4.810;2024-01-15T12:18:16;5.47;;;1.13;;
37527;SDS011;23372;52.050;4.810;2024-01-15T12:20:43;4.33;;;1.23;;
37527;SDS011;23372;52.050;4.810;2024-01-15T12:23:11;9.37;;;1.30;;
37527;SDS011;23372;52.050;4.810;2024-01-15T12:25:38;7.20;;;1.00;;
37527;SDS011;23372;52.050;4.810;2024-01-15T12:28:04;5.63;;;1.60;;
37527;SDS011;23372;52.050;4.810;2024-01-15T12:30:30;7.57;;;1.00;;
37527;SDS011;23372;52.050;4.810;2024-01-15T12:32:58;3.67;;;1.07;;
37527;SDS011;23372;52.050;4.810;2024-01-15T12:35:25;6.77;;;0.87;;
37527;SDS011;23372;52.050;4.810;2024-01-15T12:37:51;7.93;;;0.90;;
37527;SDS011;23372;52.050;4.810;2024-01-15T12:40:21;6.80;;;1.20;;
37527;SDS011;23372;52.050;4.810;2024-01-15T12:42:48;9.33;;;1.37;;
37527;SDS011;23372;52.050;4.810;2024-01-15T12:45:13;9.30;;;1.17;;
37527;SDS011;23372;52.050;4.810;2024-01-15T12:47:40;7.60;;;1.50;;
37527;SDS011;23372;52.050;4.810;2024-01-15T12:50:09;19.87;;;1.80;;
37527;SDS011;23372;52.050;4.810;2024-01-15T12:52:36;10.07;;;1.30;;
37527;SDS011;23372;52.050;4.810;2024-01-15T12:55:04;8.23;;;1.60;;
37527;SDS011;23372;52.050;4.810;2024-01-15T12:57:30;6.53;;;1.20;;
37527;SDS011;23372;52.050;4.810;2024-01-15T12:59:55;5.73;;;1.20;;
37527;SDS011;23372;52.050;4.810;2024-01-15T13:02:21;10.67;;;1.50;;
37527;SDS011;23372;52.050;4.810;2024-01-15T13:04:47;3.23;;;0.90;;
37527;SDS011;23372;52.050;4.810;2024-01-15T13:07:13;11.30;;;2.00;;
37527;SDS011;23372;52.050;4.810;2024-01-15T13:09:38;11.50;;;1.30;;
37527;SDS011;23372;52.050;4.810;2024-01-15T13:12:04;7.03;;;1.50;;
37527;SDS011;23372;52.050;4.810;2024-01-15T13:14:30;15.17;;;2.43;;
37527;SDS011;23372;52.050;4.810;2024-01-15T13:16:56;6.07;;;1.40;;
37527;SDS011;23372;52.050;4.810;2024-01-15T13:19:22;9.80;;;1.70;;
37527;SDS011;23372;52.050;4.810;2024-01-15T13:21:47;14.00;;;1.60;;
37527;SDS011;23372;52.050;4.810;2024-01-15T13:24:14;4.67;;;0.70;;
37527;SDS011;23372;52.050;4.810;2024-01-15T13:26:40;8.23;;;1.23;;
37527;SDS011;23372;52.050;4.810;2024-01-15T13:29:06;10.17;;;1.07;;
37527;SDS011;23372;52.050;4.810;2024-01-15T13:31:31;5.67;;;0.80;;
37527;SDS011;23372;52.050;4.810;2024-01-15T13:33:58;5.43;;;1.33;;
37527;SDS011;23372;52.050;4.810;2024-01-15T13:36:26;4.77;;;1.03;;
37527;SDS011;23372;52.050;4.810;2024-01-15T13:38:52;4.27;;;1.13;;
37527;SDS011;23372;52.050;4.810;2024-01-15T13:41:19;3.00;;;1.00;;
37527;SDS011;23372;52.050;4.810;2024-01-15T13:43:55;6.93;;;0.87;;
37527;SDS011;23372;52.050;4.810;2024-01-15T13:46:24;4.27;;;1.00;;
37527;SDS011;23372;52.050;4.810;2024-01-15T13:48:51;3.73;;;0.50;;
37527;SDS011;23372;52.050;4.810;2024-01-15T13:51:17;4.33;;;0.60;;
37527;SDS011;23372;52.050;4.810;2024-01-15T13:53:42;4.40;;;0.77;;
37527;SDS011;23372;52.050;4.810;2024-01-15T13:56:08;3.13;;;0.80;;
37527;SDS011;23372;52.050;4.810;2024-01-15T13:58:35;6.67;;;1.03;;
37527;SDS011;23372;52.050;4.810;2024-01-15T14:01:01;7.10;;;1.00;;
37527;SDS011;23372;52.050;4.810;2024-01-15T14:03:28;8.43;;;1.23;;
37527;SDS011;23372;52.050;4.810;2024-01-15T14:05:54;5.10;;;1.00;;
37527;SDS011;23372;52.050;4.810;2024-01-15T14:08:20;4.43;;;0.90;;
37527;SDS011;23372;52.050;4.810;2024-01-15T14:10:45;15.03;;;1.00;;
37527;SDS011;23372;52.050;4.810;2024-01-15T14:13:11;5.50;;;0.83;;
37527;SDS011;23372;52.050;4.810;2024-01-15T14:15:37;5.57;;;0.97;;
37527;SDS011;23372;52.050;4.810;2024-01-15T14:18:02;8.60;;;1.17;;
37527;SDS011;23372;52.050;4.810;2024-01-15T14:20:28;12.53;;;1.70;;
37527;SDS011;23372;52.050;4.810;2024-01-15T14:22:54;9.50;;;1.60;;
37527;SDS011;23372;52.050;4.810;2024-01-15T14:25:20;10.97;;;2.00;;
37527;SDS011;23372;52.050;4.810;2024-01-15T14:27:46;11.73;;;1.90;;
37527;SDS011;23372;52.050;4.810;2024-01-15T14:30:12;16.60;;;3.23;;
37527;SDS011;23372;52.050;4.810;2024-01-15T14:32:38;15.43;;;2.67;;
37527;SDS011;23372;52.050;4.810;2024-01-15T14:35:05;11.53;;;5.67;;
37527;SDS011;23372;52.050;4.810;2024-01-15T14:37:31;11.57;;;3.23;;
37527;SDS011;23372;52.050;4.810;2024-01-15T14:39:56;14.30;;;2.03;;
37527;SDS011;23372;52.050;4.810;2024-01-15T14:42:22;9.20;;;2.10;;
37527;SDS011;23372;52.050;4.810;2024-01-15T14:44:49;5.40;;;1.60;;
37527;SDS011;23372;52.050;4.810;2024-01-15T14:47:14;5.40;;;1.47;;